Data

From:  To:  PST   UTC
Description Unit Station From To Min. Max. Avg.
Water Temperature at Buoy °C Buoy 2021-11-04 16:03 2021-12-03 17:01 8.21 12.77 10.25
Weather: Air Temperature at Buoy °C Buoy 2021-11-03 22:47 2021-12-03 22:17 2.52 16.6 9.62
Wind Speed at Buoy m/s Buoy 2021-11-03 23:02 2021-12-03 22:17 0 14.58 4.3
Wind Direction at Buoy Deg. Buoy 2021-11-03 22:47 2021-12-03 22:17 0 359.9 181.73
Weather: Air Pressure at Buoy mb Buoy 2021-11-03 22:47 2021-12-03 22:17 996.34 1034.54 1019.58
Weather: Relative Humidity at Buoy % Buoy 2021-11-03 22:47 2021-12-03 22:17 29.03 95.7 76.34
Weather: Solar Radiation at Buoy W/m² Buoy 2021-11-03 22:47 2021-12-03 22:17 0 562.4 38.07
Flow at Cedar River ft³/s Cedar River 2021-11-03 22:30 2021-12-03 22:15 495 2860 1475.09
Water Temperature at Cedar River °C Cedar River 2021-11-03 22:30 2021-12-03 22:15 6.6 10.5 8.6
Stage at 37A ft 37A 2021-11-03 23:00 2021-12-03 22:00 1.74 3.13 2.35
Flow at 37A ft³/s 37A 2021-11-03 23:00 2021-12-03 22:00 16.25 144 56.15
Flow at Sammish River ft³/s Sammamish River-51T 2021-11-03 23:00 2021-12-03 22:00 18.44 21.76 20.15
Stage at 34A ft 34a 2021-11-03 23:00 2021-12-03 22:00 0.94 2.07 1.36
Flow at 34A ft³/s 34a 2021-11-03 23:00 2021-12-03 22:00 1.9 30.5 8.25
Stage at 35C ft 35C 2021-11-03 23:00 2021-12-03 00:00 3.21 3.98 3.42
Flow at 35C ft³/s 35C 2021-11-03 23:00 2021-12-03 00:00 17.67 75.5 29.69
Water Temperature at 35C °C 35C 2021-11-03 23:00 2021-12-03 22:00 7.71 11.64 9.71
Stage at COB-06C ft COB-06C 2021-11-03 23:00 2021-12-03 22:00 0.63 2.07 1.07
Flow at COB-06C ft³/s COB-06C 2021-11-03 23:00 2021-12-03 22:00 8.3 125 31.16
Stage at 27A ft 27a 2021-11-03 23:00 2021-12-03 22:00 3.3 4.98 3.7
Flow at 27A ft³/s 27a 2021-11-03 23:00 2021-12-03 22:00 5.6 112.5 23.61
Water Temperature at 27A °C 27a 2021-11-03 23:00 2021-12-03 22:00 7.11 12.97 9.85
Weather: Air Temperature at 27A °C 27a 2021-11-03 23:00 2021-12-03 22:00 1.42 15.45 9.01
Stage at 58A ft 58a 2021-11-03 23:00 2021-12-03 22:00 1.42 2.02 1.57
Flow at 58A ft³/s 58a 2021-11-03 23:00 2021-12-03 22:00 5.1 32.92 9.45
Water Temperature at 58A °C 58a 2021-11-03 23:00 2021-12-03 22:00 8.35 12.76 10.26
Weather: Air Temperature at 58A °C 58a 2021-11-03 23:00 2021-12-03 22:00 -0.85 16.15 8.54
Stage at Lock ft Lock 2021-11-03 23:00 2021-12-03 22:00 19.95 20.58 20.21
Wind Speed at Tacoma m/s Tacoma Airport 2021-11-03 23:02 2021-12-03 22:17 0 14.58 4.3
Wind Direction at Tacoma Deg. Tacoma Airport 2021-11-03 23:02 2021-12-03 22:17 0 359.9 181.8
Cloud Cover at Tacoma Tacoma Airport 2021-11-03 22:53 2021-12-03 18:53 0 1 0.78